createdAt,value
2023-04-15T00:04:51.807Z,99982.03
2023-04-15T00:10:13.488Z,99985.41
2023-04-15T00:15:16.648Z,99998.50
2023-04-15T00:20:19.548Z,100001.34
2023-04-15T00:25:22.918Z,100012.41
2023-04-15T00:30:26.806Z,100020.09
2023-04-15T00:35:32.837Z,100027.22
2023-04-15T00:40:36.060Z,100047.03
2023-04-15T00:45:38.976Z,100045.03
2023-04-15T00:50:42.310Z,100042.91
2023-04-15T00:55:45.546Z,100054.41
2023-04-15T01:00:49.514Z,100071.25
2023-04-15T01:05:58.498Z,100072.50
2023-04-15T01:11:03.884Z,100074.19
2023-04-15T01:16:08.930Z,100087.94
2023-04-15T01:21:12.847Z,100094.16
2023-04-15T01:26:17.656Z,100094.59
2023-04-15T01:31:22.386Z,100105.53
2023-04-15T01:36:25.415Z,100111.59
2023-04-15T01:41:29.913Z,100111.91
2023-04-15T01:46:34.667Z,100125.13
2023-04-15T01:51:38.841Z,100120.78
2023-04-15T01:56:43.527Z,100136.03
2023-04-15T02:01:47.729Z,100149.25
2023-04-15T02:06:51.903Z,100153.63
2023-04-15T02:11:58.888Z,100162.75
2023-04-15T02:17:07.490Z,100165.56
2023-04-15T02:22:18.447Z,100166.19
2023-04-15T02:27:24.289Z,100177.69
2023-04-15T02:32:47.330Z,100189.22
2023-04-15T02:37:52.128Z,100207.75
2023-04-15T02:42:56.349Z,100215.06
2023-04-15T02:48:06.544Z,100219.88
2023-04-15T02:53:11.286Z,100223.63
2023-04-15T02:58:15.500Z,100226.09
2023-04-15T03:03:47.397Z,100248.03
2023-04-15T03:08:51.852Z,100247.00
2023-04-15T03:13:56.310Z,100249.00
2023-04-15T03:19:06.801Z,100252.56
2023-04-15T03:24:11.796Z,100269.88
2023-04-15T03:29:16.610Z,100269.56
2023-04-15T03:34:21.005Z,100279.22
2023-04-15T03:39:25.330Z,100274.25
2023-04-15T03:44:48.072Z,100283.13
2023-04-15T03:49:52.263Z,100274.88
2023-04-15T03:54:56.405Z,100299.16
2023-04-15T04:00:00.584Z,100301.53
2023-04-15T04:05:04.954Z,100301.97
2023-04-15T04:10:09.488Z,100311.19
2023-04-15T04:15:13.694Z,100318.78
2023-04-15T04:20:17.860Z,100308.81
2023-04-15T04:25:22.194Z,100336.72
2023-04-15T04:30:26.720Z,100340.91
2023-04-15T04:35:31.038Z,100343.22
2023-04-15T04:40:35.264Z,100348.84
2023-04-15T04:45:39.395Z,100347.09
2023-04-15T04:50:44.810Z,100368.16
2023-04-15T04:55:48.951Z,100356.81
2023-04-15T05:00:53.300Z,100358.69
2023-04-15T05:05:57.485Z,100363.66
2023-04-15T05:11:01.768Z,100378.81
2023-04-15T05:16:06.671Z,100379.84
2023-04-15T05:21:10.661Z,100374.03
2023-04-15T05:26:33.081Z,100384.47
2023-04-15T05:31:37.782Z,100383.84
2023-04-15T05:36:41.975Z,100379.91
2023-04-15T05:41:46.894Z,100387.13
2023-04-15T05:46:51.045Z,100392.69
2023-04-15T05:51:55.198Z,100382.66
2023-04-15T05:56:59.523Z,100383.66
2023-04-15T06:02:03.835Z,100383.63
2023-04-15T06:07:08.125Z,100395.72
2023-04-15T06:12:13.494Z,100395.53
2023-04-15T06:17:19.217Z,100408.00
2023-04-15T06:22:24.000Z,100414.66
2023-04-15T06:27:28.131Z,100409.16
2023-04-15T06:32:33.317Z,100407.56
2023-04-15T06:37:37.463Z,100393.81
2023-04-15T06:42:42.193Z,100396.91
2023-04-15T06:47:46.351Z,100401.78
2023-04-15T06:52:51.004Z,100406.84
2023-04-15T06:57:55.036Z,100415.38
2023-04-15T07:02:59.383Z,100402.41
2023-04-15T07:08:04.092Z,100410.16
2023-04-15T07:13:09.118Z,100417.22
2023-04-15T07:18:13.874Z,100410.84
2023-04-15T07:23:18.611Z,100410.59
2023-04-15T07:28:22.913Z,100413.59
2023-04-15T07:33:27.369Z,100409.44
2023-04-15T07:38:31.855Z,100409.03
2023-04-15T07:43:36.141Z,100419.19
2023-04-15T07:48:40.469Z,100407.66
2023-04-15T07:53:44.854Z,100411.63
2023-04-15T07:58:48.948Z,100405.03
2023-04-15T08:03:53.506Z,100416.63
2023-04-15T08:08:57.853Z,100401.97
2023-04-15T08:14:02.174Z,100394.53
2023-04-15T08:19:06.306Z,100402.66
2023-04-15T08:24:11.710Z,100406.38
2023-04-15T08:29:16.342Z,100410.69
2023-04-15T08:34:20.950Z,100410.22
2023-04-15T08:39:25.242Z,100418.69
2023-04-15T08:44:32.304Z,100398.53
2023-04-15T08:49:41.582Z,100403.44
2023-04-15T08:54:46.117Z,100408.09
2023-04-15T08:59:50.704Z,100399.59
2023-04-15T09:04:55.217Z,100403.53
2023-04-15T09:10:18.132Z,100400.13
2023-04-15T09:15:22.970Z,100419.63
2023-04-15T09:20:27.573Z,100404.53
2023-04-15T09:25:34.845Z,100418.72
2023-04-15T09:30:39.289Z,100417.47
2023-04-15T09:35:58.260Z,100419.78
2023-04-15T09:41:02.941Z,100430.84
2023-04-15T09:46:07.205Z,100429.25
2023-04-15T09:51:11.450Z,100433.88
2023-04-15T09:56:15.651Z,100431.16
2023-04-15T10:01:19.890Z,100432.78
2023-04-15T10:06:27.089Z,100434.69
2023-04-15T10:11:33.092Z,100430.56
2023-04-15T10:16:43.520Z,100434.66
2023-04-15T10:21:47.833Z,100437.34
2023-04-15T10:26:52.973Z,100426.53
2023-04-15T10:31:58.855Z,100443.00
2023-04-15T10:37:04.597Z,100448.88
2023-04-15T10:42:12.741Z,100462.16
2023-04-15T10:47:19.684Z,100464.28
2023-04-15T10:52:26.293Z,100465.38
2023-04-15T10:57:38.228Z,100467.31
2023-04-15T11:02:57.393Z,100471.06
2023-04-15T11:08:01.660Z,100480.72
2023-04-15T11:13:16.834Z,100473.03
2023-04-15T11:18:30.790Z,100475.06
2023-04-15T11:23:40.378Z,100472.81
2023-04-15T11:28:46.484Z,100475.97
2023-04-15T11:34:02.688Z,100469.47
2023-04-15T11:39:07.893Z,100479.13
2023-04-15T11:44:19.061Z,100480.66
2023-04-15T11:49:28.050Z,100478.66
2023-04-15T11:54:31.009Z,100483.38
2023-04-15T11:59:45.803Z,100467.94
2023-04-15T12:04:49.237Z,100490.69
2023-04-15T12:09:56.968Z,100485.97
2023-04-15T12:15:00.265Z,100481.38
2023-04-15T12:20:03.620Z,100473.72
2023-04-15T12:25:07.388Z,100485.25
2023-04-15T12:30:11.878Z,100489.75
2023-04-15T12:35:14.927Z,100479.44
2023-04-15T12:40:18.166Z,100503.28
2023-04-15T12:45:21.607Z,100505.56
2023-04-15T12:50:24.290Z,100487.47
2023-04-15T12:55:27.311Z,100516.38
2023-04-15T13:00:30.260Z,100497.56
2023-04-15T13:05:33.199Z,100498.31
2023-04-15T13:10:39.328Z,100509.78
2023-04-15T13:15:45.883Z,100528.28
2023-04-15T13:20:48.914Z,100505.06
2023-04-15T13:25:52.328Z,100528.69
2023-04-15T13:30:55.005Z,100524.88
2023-04-15T13:35:57.834Z,100518.91
2023-04-15T13:41:01.173Z,100524.56
2023-04-15T13:46:04.220Z,100530.66
2023-04-15T13:51:07.310Z,100516.31
2023-04-15T13:56:10.513Z,100544.34
2023-04-15T14:01:15.043Z,100546.72
2023-04-15T14:06:18.104Z,100539.19
2023-04-15T14:11:21.178Z,100548.72
2023-04-15T14:16:24.146Z,100551.91
2023-04-15T14:21:28.433Z,100546.50
2023-04-15T14:26:31.361Z,100578.59
2023-04-15T14:31:34.367Z,100554.28
2023-04-15T14:36:40.439Z,100570.47
2023-04-15T14:41:43.910Z,100563.47
2023-04-15T14:46:47.002Z,100570.28
2023-04-15T14:51:49.987Z,100568.38
2023-04-15T14:56:52.766Z,100562.28
2023-04-15T15:01:55.799Z,100582.06
2023-04-15T15:06:58.979Z,100590.13
2023-04-15T15:12:02.289Z,100582.78
2023-04-15T15:17:05.186Z,100584.38
2023-04-15T15:22:08.119Z,100604.09
2023-04-15T15:27:11.293Z,100592.28
2023-04-15T15:32:14.170Z,100602.88
2023-04-15T15:37:17.170Z,100601.84
2023-04-15T15:42:20.470Z,100603.44
2023-04-15T15:47:23.588Z,100614.19
2023-04-15T15:52:26.729Z,100621.03
2023-04-15T15:57:29.668Z,100638.25
2023-04-15T16:02:59.922Z,100642.88
2023-04-15T16:07:56.068Z,100651.03
2023-04-15T16:12:59.083Z,100645.44
2023-04-15T16:18:02.269Z,100669.75
2023-04-15T16:23:13.672Z,100667.72
2023-04-15T16:28:26.402Z,100684.63
2023-04-15T16:33:30.288Z,100686.44
2023-04-15T16:38:33.275Z,100695.00
2023-04-15T16:43:36.627Z,100691.56
2023-04-15T16:48:39.547Z,100696.28
2023-04-15T16:53:42.564Z,100702.25
2023-04-15T16:58:45.780Z,100708.06
2023-04-15T17:03:49.506Z,100713.63
2023-04-15T17:08:52.645Z,100727.63
2023-04-15T17:13:55.634Z,100725.50
2023-04-15T17:18:59.475Z,100731.84
2023-04-15T17:24:06.288Z,100721.25
2023-04-15T17:29:17.763Z,100745.63
2023-04-15T17:34:26.185Z,100740.09
2023-04-15T17:40:09.669Z,100738.81
2023-04-15T17:45:33.316Z,100742.75
2023-04-15T17:50:56.269Z,100748.03
2023-04-15T17:56:19.311Z,100748.97
2023-04-15T18:01:45.759Z,100754.56
2023-04-15T18:07:09.048Z,100762.81
2023-04-15T18:12:31.957Z,100758.75
2023-04-15T18:17:54.964Z,100771.94
2023-04-15T18:22:57.984Z,100764.25
2023-04-15T18:28:00.946Z,100762.00
2023-04-15T18:33:04.108Z,100766.38
2023-04-15T18:38:08.321Z,100769.66
2023-04-15T18:43:11.429Z,100772.47
2023-04-15T18:48:16.159Z,100767.03
2023-04-15T18:53:19.024Z,100771.38
2023-04-15T18:58:22.173Z,100769.97
2023-04-15T19:03:25.120Z,100779.66
2023-04-15T19:08:29.682Z,100786.00
2023-04-15T19:13:32.663Z,100785.00
2023-04-15T19:18:35.709Z,100790.16
2023-04-15T19:23:38.960Z,100792.94
2023-04-15T19:28:42.064Z,100800.50
2023-04-15T19:33:45.083Z,100802.19
2023-04-15T19:38:48.875Z,100801.19
2023-04-15T19:43:51.772Z,100811.97
2023-04-15T19:48:55.591Z,100805.41
2023-04-15T19:53:59.789Z,100806.28
2023-04-15T19:59:02.872Z,100812.59
2023-04-15T20:04:24.375Z,100820.50
2023-04-15T20:09:27.444Z,100826.56
2023-04-15T20:14:30.579Z,100833.22
2023-04-15T20:19:33.563Z,100820.09
2023-04-15T20:24:36.481Z,100831.06
2023-04-15T20:29:39.486Z,100836.25
2023-04-15T20:34:42.496Z,100838.31
2023-04-15T20:39:45.453Z,100838.44
2023-04-15T20:44:48.319Z,100835.94
2023-04-15T20:49:51.560Z,100839.47
2023-04-15T20:54:54.519Z,100849.22
2023-04-15T20:59:57.530Z,100851.28
2023-04-15T21:05:00.602Z,100852.06
2023-04-15T21:10:03.694Z,100861.03
2023-04-15T21:15:09.342Z,100865.13
2023-04-15T21:20:12.816Z,100872.41
2023-04-15T21:25:15.685Z,100870.78
2023-04-15T21:30:18.586Z,100875.78
2023-04-15T21:35:21.751Z,100875.38
2023-04-15T21:40:43.004Z,100876.22
2023-04-15T21:46:20.872Z,100871.44
2023-04-15T21:51:09.166Z,100876.06
2023-04-15T21:56:12.269Z,100884.41
2023-04-15T22:01:15.289Z,100882.19
2023-04-15T22:06:18.684Z,100895.66
2023-04-15T22:11:28.652Z,100906.03
2023-04-15T22:16:31.911Z,100898.88
2023-04-15T22:21:35.088Z,100907.00
2023-04-15T22:26:39.118Z,100913.75
2023-04-15T22:31:42.156Z,100929.31
2023-04-15T22:36:45.063Z,100924.00
2023-04-15T22:41:47.942Z,100925.25
2023-04-15T22:46:52.092Z,100934.66
2023-04-15T22:51:55.216Z,100918.53
2023-04-15T22:56:58.289Z,100936.34
2023-04-15T23:02:01.442Z,100925.09
2023-04-15T23:07:04.495Z,100939.00
2023-04-15T23:12:07.959Z,100942.44
2023-04-15T23:17:11.078Z,100949.66
2023-04-15T23:22:14.171Z,100950.88
2023-04-15T23:27:19.428Z,100949.94
2023-04-15T23:32:22.320Z,100956.53
2023-04-15T23:37:25.162Z,100956.53
2023-04-15T23:42:28.193Z,100954.47
2023-04-15T23:47:31.183Z,100964.16
2023-04-15T23:52:34.390Z,100979.97
2023-04-15T23:57:37.214Z,100980.22
